Terminal Aerodrome Forecast
Issued by NWS

Home | Current Version | Previous Version | Text Only | Print | Product List | Glossary On
Versions: 1 2 3 4 5 6 7 8 9 10 11 12 13 14 15 16 17 18 19 20 21 22 23 24 25 26 27 28 29
000
FTUS42 KCAE 270800 AAA
TAFDNL
TAF AMD
KDNL 270851Z 2709/2806 29007KT P6SM SCT100
     FM271500 30010G16KT P6SM SCT050 BKN100
     FM272300 31008KT P6SM SKC=

USA.gov is the U.S. government's official web portal to all federal, state and local government web resources and services.